createdAt,value
2018-11-14T00:04:19.069Z,101557.23
2018-11-14T00:09:02.097Z,101550.02
2018-11-14T00:13:45.979Z,101555.28
2018-11-14T00:18:28.842Z,101560.38
2018-11-14T00:23:12.830Z,101547.03
2018-11-14T00:27:55.787Z,101540.99
2018-11-14T00:32:38.846Z,101531.13
2018-11-14T00:37:21.762Z,101518.68
2018-11-14T00:42:05.182Z,101518.92
2018-11-14T00:46:48.094Z,101513.75
2018-11-14T00:51:33.115Z,101498.37
2018-11-14T00:56:16.413Z,101491.33
2018-11-14T01:00:59.488Z,101491.23
2018-11-14T01:05:42.689Z,101476.82
2018-11-14T01:10:25.783Z,101476.44
2018-11-14T01:15:12.098Z,101476.43
2018-11-14T01:19:56.093Z,101480.75
2018-11-14T01:24:38.927Z,101473.00
2018-11-14T01:29:23.185Z,101471.24
2018-11-14T01:34:06.425Z,101458.05
2018-11-14T01:38:49.675Z,101448.27
2018-11-14T01:43:33.923Z,101448.00
2018-11-14T01:48:17.103Z,101444.27
2018-11-14T01:53:01.497Z,101442.83
2018-11-14T01:57:44.674Z,101428.36
2018-11-14T02:02:27.675Z,101429.80
2018-11-14T02:07:10.526Z,101433.03
2018-11-14T02:11:53.501Z,101426.23
2018-11-14T02:16:36.392Z,101422.06
2018-11-14T02:21:19.473Z,101420.71
2018-11-14T02:26:02.345Z,101422.47
2018-11-14T02:30:45.213Z,101412.02
2018-11-14T02:35:28.473Z,101418.62
2018-11-14T02:40:13.713Z,101426.00
2018-11-14T02:44:56.607Z,101417.12
2018-11-14T02:49:39.653Z,101427.23
2018-11-14T02:54:22.514Z,101418.54
2018-11-14T02:59:06.678Z,101414.89
2018-11-14T03:03:50.619Z,101411.45
2018-11-14T03:08:33.519Z,101398.28
2018-11-14T03:13:17.627Z,101404.42
2018-11-14T03:18:00.526Z,101403.18
2018-11-14T03:22:43.695Z,101397.73
2018-11-14T03:27:26.995Z,101395.18
2018-11-14T03:32:10.606Z,101400.67
2018-11-14T03:36:53.899Z,101402.20
2018-11-14T03:41:38.022Z,101402.35
2018-11-14T03:46:20.922Z,101396.14
2018-11-14T03:51:03.994Z,101403.18
2018-11-14T03:55:46.850Z,101396.75
2018-11-14T04:00:29.975Z,101396.16
2018-11-14T04:05:12.934Z,101389.70
2018-11-14T04:09:56.987Z,101381.88
2018-11-14T04:14:39.850Z,101386.64
2018-11-14T04:19:22.802Z,101374.35
2018-11-14T04:24:05.853Z,101380.42
2018-11-14T04:28:50.883Z,101373.91
2018-11-14T04:33:34.022Z,101384.69
2018-11-14T04:38:16.953Z,101380.29
2018-11-14T04:43:01.927Z,101379.02
2018-11-14T04:47:44.984Z,101384.10
2018-11-14T04:52:28.852Z,101384.87
2018-11-14T04:57:11.767Z,101374.33
2018-11-14T05:01:54.976Z,101376.81
2018-11-14T05:06:37.871Z,101386.83
2018-11-14T05:11:20.930Z,101388.91
2018-11-14T05:16:03.867Z,101386.52
2018-11-14T05:20:47.216Z,101380.92
2018-11-14T05:25:30.782Z,101388.30
2018-11-14T05:30:20.285Z,101394.48
2018-11-14T05:35:04.132Z,101385.40
2018-11-14T05:39:47.242Z,101387.66
2018-11-14T05:44:30.154Z,101392.08
2018-11-14T05:49:14.190Z,101401.72
2018-11-14T05:53:57.055Z,101387.52
2018-11-14T05:58:40.999Z,101402.73
2018-11-14T06:03:23.889Z,101400.67
2018-11-14T06:08:06.829Z,101392.98
2018-11-14T06:12:49.890Z,101386.83
2018-11-14T06:17:32.776Z,101387.05
2018-11-14T06:22:15.659Z,101383.98
2018-11-14T06:26:58.677Z,101386.92
2018-11-14T06:31:41.711Z,101381.11
2018-11-14T06:36:24.619Z,101377.91
2018-11-14T06:41:08.754Z,101371.00
2018-11-14T06:45:51.656Z,101363.22
2018-11-14T06:50:35.763Z,101362.44
2018-11-14T06:55:19.340Z,101364.91
2018-11-14T07:00:03.488Z,101360.44
2018-11-14T07:04:46.388Z,101359.19
2018-11-14T07:09:29.354Z,101359.86
2018-11-14T07:14:13.134Z,101357.69
2018-11-14T07:18:57.169Z,101365.64
2018-11-14T07:23:40.079Z,101363.98
2018-11-14T07:30:31.890Z,101359.37
2018-11-14T07:35:15.534Z,101360.48
2018-11-14T07:39:58.508Z,101363.24
2018-11-14T07:44:41.395Z,101361.00
2018-11-14T07:49:24.511Z,101368.00
2018-11-14T07:54:08.344Z,101371.11
2018-11-14T07:58:51.338Z,101369.63
2018-11-14T08:03:34.247Z,101366.22
2018-11-14T08:08:18.467Z,101360.02
2018-11-14T08:13:01.405Z,101349.08
2018-11-14T08:17:45.054Z,101355.64
2018-11-14T08:22:28.030Z,101333.62
2018-11-14T08:27:10.928Z,101341.84
2018-11-14T08:31:54.468Z,101338.85
2018-11-14T08:36:40.210Z,101347.39
2018-11-14T08:41:23.219Z,101338.93
2018-11-14T08:46:06.543Z,101333.38
2018-11-14T08:50:49.710Z,101309.78
2018-11-14T08:55:33.692Z,101304.31
2018-11-14T09:00:19.959Z,101295.98
2018-11-14T09:05:02.854Z,101296.52
2018-11-14T09:09:49.132Z,101302.48
2018-11-14T09:14:32.108Z,101301.48
2018-11-14T09:19:15.177Z,101304.42
2018-11-14T09:23:58.096Z,101291.56
2018-11-14T09:28:44.556Z,101284.05
2018-11-14T09:33:27.462Z,101275.85
2018-11-14T09:38:11.359Z,101268.11
2018-11-14T09:42:54.254Z,101268.70
2018-11-14T09:47:37.138Z,101260.73
2018-11-14T09:52:20.253Z,101252.49
2018-11-14T09:57:03.233Z,101251.50
2018-11-14T10:01:46.276Z,101251.00
2018-11-14T10:06:29.194Z,101246.91
2018-11-14T10:11:13.295Z,101241.30
2018-11-14T10:15:56.574Z,101232.08
2018-11-14T10:20:39.562Z,101235.42
2018-11-14T10:25:22.492Z,101231.56
2018-11-14T10:30:08.673Z,101237.64
2018-11-14T10:34:51.580Z,101229.08
2018-11-14T10:39:34.634Z,101206.51
2018-11-14T10:44:17.527Z,101210.52
2018-11-14T10:49:00.402Z,101203.81
2018-11-14T10:53:43.275Z,101210.73
2018-11-14T10:58:26.285Z,101210.52
2018-11-14T11:03:16.478Z,101189.30
2018-11-14T11:08:04.949Z,101185.95
2018-11-14T11:12:53.231Z,101184.25
2018-11-14T11:17:41.571Z,101172.84
2018-11-14T11:22:24.424Z,101160.98
2018-11-14T11:27:07.356Z,101145.74
2018-11-14T11:31:51.480Z,101152.03
2018-11-14T11:36:34.405Z,101147.06
2018-11-14T11:41:21.100Z,101148.52
2018-11-14T11:46:04.015Z,101148.56
2018-11-14T11:50:48.265Z,101145.89
2018-11-14T11:55:34.979Z,101137.37
2018-11-14T12:00:18.561Z,101128.16
2018-11-14T12:05:01.588Z,101130.91
2018-11-14T12:09:48.905Z,101123.88
2018-11-14T12:14:32.456Z,101121.78
2018-11-14T12:19:16.569Z,101126.03
2018-11-14T12:24:01.420Z,101126.72
2018-11-14T12:28:45.412Z,101126.39
2018-11-14T12:33:28.316Z,101120.14
2018-11-14T12:38:12.320Z,101108.64
2018-11-14T12:42:55.286Z,101114.45
2018-11-14T12:47:40.557Z,101110.61
2018-11-14T12:52:23.456Z,101114.23
2018-11-14T12:57:06.381Z,101107.77
2018-11-14T13:01:52.596Z,101099.44
2018-11-14T13:06:40.223Z,101096.99
2018-11-14T13:11:23.382Z,101099.91
2018-11-14T13:16:06.402Z,101094.80
2018-11-14T13:20:49.788Z,101093.70
2018-11-14T13:25:32.827Z,101092.94
2018-11-14T13:30:21.920Z,101083.15
2018-11-14T13:35:06.948Z,101088.45
2018-11-14T13:39:51.325Z,101082.59
2018-11-14T13:44:34.450Z,101083.47
2018-11-14T13:49:21.529Z,101090.67
2018-11-14T13:54:04.615Z,101085.67
2018-11-14T13:58:51.491Z,101081.18
2018-11-14T14:03:34.619Z,101084.77
2018-11-14T14:08:18.704Z,101079.16
2018-11-14T14:13:01.810Z,101080.32
2018-11-14T14:17:46.920Z,101073.67
2018-11-14T14:22:30.015Z,101073.71
2018-11-14T14:27:13.429Z,101067.92
2018-11-14T14:31:56.475Z,101062.91
2018-11-14T14:36:39.523Z,101061.95
2018-11-14T14:41:22.786Z,101051.43
2018-11-14T14:46:06.526Z,101055.50
2018-11-14T14:50:53.711Z,101056.13
2018-11-14T14:55:36.749Z,101047.33
2018-11-14T15:00:23.053Z,101046.45
2018-11-14T15:05:07.475Z,101049.68
2018-11-14T15:09:50.570Z,101052.75
2018-11-14T15:14:33.825Z,101058.60
2018-11-14T15:19:20.773Z,101061.19
2018-11-14T15:24:03.897Z,101067.21
2018-11-14T15:28:50.886Z,101068.33
2018-11-14T15:33:34.014Z,101064.37
2018-11-14T15:38:19.139Z,101070.24
2018-11-14T15:43:02.393Z,101063.90
2018-11-14T15:47:45.737Z,101066.30
2018-11-14T15:52:28.963Z,101070.72
2018-11-14T15:57:12.340Z,101066.48
2018-11-14T16:01:56.037Z,101064.82
2018-11-14T16:06:39.831Z,101068.72
2018-11-14T16:11:26.474Z,101071.40
2018-11-14T16:16:09.519Z,101069.69
2018-11-14T16:20:52.760Z,101075.75
2018-11-14T16:25:35.764Z,101068.38
2018-11-14T16:30:21.653Z,101063.94
2018-11-14T16:35:05.624Z,101064.62
2018-11-14T16:39:53.190Z,101072.67
2018-11-14T16:44:36.382Z,101066.10
2018-11-14T16:49:20.332Z,101070.80
2018-11-14T16:54:03.406Z,101060.00
2018-11-14T16:58:47.590Z,101061.25
2018-11-14T17:08:37.692Z,101055.99
2018-11-14T17:13:20.643Z,101055.88
2018-11-14T17:23:21.495Z,101061.32
2018-11-14T17:28:12.312Z,101068.53
2018-11-14T17:32:58.680Z,101053.55
2018-11-14T17:37:45.844Z,101050.84
2018-11-14T17:42:32.718Z,101055.41
2018-11-14T17:47:16.716Z,101049.56
2018-11-14T17:52:25.260Z,101048.29
2018-11-14T18:02:23.187Z,101045.40
2018-11-14T18:07:07.362Z,101045.03
2018-11-14T18:11:50.813Z,101049.41
2018-11-14T18:16:34.980Z,101045.09
2018-11-14T18:21:21.620Z,101047.73
2018-11-14T18:26:07.652Z,101038.59
2018-11-14T18:30:51.246Z,101040.45
2018-11-14T18:35:37.686Z,101040.08
2018-11-14T18:40:23.829Z,101038.84
2018-11-14T18:45:43.203Z,101033.24
2018-11-14T18:50:26.720Z,101027.34
2018-11-14T18:55:11.343Z,101029.64
2018-11-14T18:59:55.359Z,101025.19
2018-11-14T19:05:03.421Z,101024.38
2018-11-14T19:09:46.542Z,101014.59
2018-11-14T19:14:29.799Z,101009.48
2018-11-14T19:19:22.368Z,101005.48
2018-11-14T19:24:05.555Z,101007.75
2018-11-14T19:28:51.514Z,101010.58
2018-11-14T19:33:37.141Z,101000.82
2018-11-14T19:38:21.162Z,101006.31
2018-11-14T19:43:07.021Z,100999.84
2018-11-14T19:47:54.498Z,101001.73
2018-11-14T19:52:39.104Z,100997.19
2018-11-14T19:57:22.243Z,100997.73
2018-11-14T20:02:05.391Z,100991.56
2018-11-14T20:06:52.393Z,101002.05
2018-11-14T20:11:35.422Z,101000.44
2018-11-14T20:16:18.622Z,100999.02
2018-11-14T20:21:02.914Z,100988.50
2018-11-14T20:25:49.577Z,100980.74
2018-11-14T20:30:38.125Z,100981.47
2018-11-14T20:35:21.804Z,100987.30
2018-11-14T20:40:05.483Z,100982.29
2018-11-14T20:44:49.648Z,100982.97
2018-11-14T20:49:33.814Z,100974.73
2018-11-14T20:54:16.768Z,100971.93
2018-11-14T20:59:03.515Z,100969.02
2018-11-14T21:03:46.435Z,100968.14
2018-11-14T21:08:30.576Z,100966.47
2018-11-14T21:13:13.523Z,100964.23
2018-11-14T21:17:58.741Z,100957.64
2018-11-14T21:22:42.187Z,100946.73
2018-11-14T21:27:26.180Z,100936.17
2018-11-14T21:32:09.083Z,100932.83
2018-11-14T21:36:52.173Z,100927.66
2018-11-14T21:41:35.094Z,100937.27
2018-11-14T21:46:18.191Z,100930.64
2018-11-14T21:51:02.354Z,100931.67
2018-11-14T21:55:45.261Z,100941.95
2018-11-14T22:00:32.168Z,100935.27
2018-11-14T22:05:15.127Z,100935.45
2018-11-14T22:10:00.409Z,100931.33
2018-11-14T22:14:43.423Z,100914.41
2018-11-14T22:19:28.611Z,100916.48
2018-11-14T22:24:11.544Z,100909.53
2018-11-14T22:28:55.628Z,100898.91
2018-11-14T22:33:38.620Z,100907.30
2018-11-14T22:38:22.818Z,100906.53
2018-11-14T22:43:05.842Z,100895.67
2018-11-14T22:47:49.582Z,100883.41
2018-11-14T22:52:32.468Z,100884.47
2018-11-14T22:57:16.879Z,100886.84
2018-11-14T23:01:59.796Z,100887.39
2018-11-14T23:06:42.908Z,100896.09
2018-11-14T23:11:26.303Z,100891.36
2018-11-14T23:16:09.427Z,100888.03
2018-11-14T23:20:52.835Z,100884.67
2018-11-14T23:25:35.708Z,100874.55
2018-11-14T23:30:19.942Z,100874.88
2018-11-14T23:35:08.656Z,100863.94
2018-11-14T23:39:51.755Z,100860.41
2018-11-14T23:44:34.707Z,100863.87
2018-11-14T23:49:19.106Z,100858.26
2018-11-14T23:54:02.072Z,100852.78
2018-11-14T23:58:46.031Z,100849.17
